Главная страница
METAR-TAF:

METAR-TAF

Аэропорты :

NWS Office

Маджуро, Маршалловы Острова

широта: 07-05N, долгота: 171-12E, высота над уровнем моря: 4 м

Текущие метеонаблюдения

Эта сводка был подготовлена 1 час и 34 минут назад, в 14:52 UTC
Ветер 3 Узел от восточный
Температура 28°C
Влажность 84%
Давление 1011 hPa
Видимость: 24.1 км
небольшая облачность на высоте 1500 фута
Отдельные облака на высоте 5000 фута
Рассеянная облачность на высоте 12000 фута
Сплошная облачность на высоте 30000 фута

METAR: PKMR 141452Z 08003KT 15SM FEW015 SCT050 BKN120 OVC300 28/25 A2984 RMK SLP107 8/871 T02810248 57014

Время: 04:26 (16:26 UTC)


TAF: отсутствует

Метеонаблюдения и прогнозы для более 4000 аэропортов (сводки METAR и TAF).

Имеющиеся станции представлены на карте желтыми и красными точками.

Чтобы увидеть название станции, наведите на нее мышь.

Затем щелкните, чтобы увидеть метеонаблюдения и метеопрогнозы.

Управление картой: чтобы увеличить масштаб, щелкните зеленые кнопки с черным крестиком; чтобы уменьшить масштаб, щелкните зеленую кнопку с тире; для просмотра соседних карт щелкайте зеленые стрелки.


METAR-TAF: